sensor_id;sensor_type;location;lat;lon;timestamp;P1;durP1;ratioP1;P2;durP2;ratioP2
58366;SDS011;57745;42.524;12.052;2023-12-07T00:01:09;4.95;;;3.20;;
58366;SDS011;57745;42.524;12.052;2023-12-07T00:03:35;4.72;;;2.80;;
58366;SDS011;57745;42.524;12.052;2023-12-07T00:06:00;4.40;;;2.95;;
58366;SDS011;57745;42.524;12.052;2023-12-07T00:08:26;4.57;;;3.08;;
58366;SDS011;57745;42.524;12.052;2023-12-07T00:10:51;3.75;;;2.70;;
58366;SDS011;57745;42.524;12.052;2023-12-07T00:13:17;5.50;;;3.05;;
58366;SDS011;57745;42.524;12.052;2023-12-07T00:15:42;4.00;;;2.90;;
58366;SDS011;57745;42.524;12.052;2023-12-07T00:18:08;5.28;;;3.00;;
58366;SDS011;57745;42.524;12.052;2023-12-07T00:20:34;4.50;;;3.20;;
58366;SDS011;57745;42.524;12.052;2023-12-07T00:22:59;4.07;;;2.45;;
58366;SDS011;57745;42.524;12.052;2023-12-07T00:25:25;4.53;;;2.47;;
58366;SDS011;57745;42.524;12.052;2023-12-07T00:27:50;3.72;;;2.53;;
58366;SDS011;57745;42.524;12.052;2023-12-07T00:30:16;4.07;;;2.65;;
58366;SDS011;57745;42.524;12.052;2023-12-07T00:32:41;5.53;;;2.60;;
58366;SDS011;57745;42.524;12.052;2023-12-07T00:35:09;3.10;;;2.65;;
58366;SDS011;57745;42.524;12.052;2023-12-07T00:37:35;4.50;;;2.80;;
58366;SDS011;57745;42.524;12.052;2023-12-07T00:40:01;4.15;;;2.42;;
58366;SDS011;57745;42.524;12.052;2023-12-07T00:42:27;4.05;;;2.60;;
58366;SDS011;57745;42.524;12.052;2023-12-07T00:44:52;5.13;;;2.47;;
58366;SDS011;57745;42.524;12.052;2023-12-07T00:47:18;4.95;;;2.75;;
58366;SDS011;57745;42.524;12.052;2023-12-07T00:49:43;3.92;;;2.50;;
58366;SDS011;57745;42.524;12.052;2023-12-07T00:52:09;3.90;;;2.70;;
58366;SDS011;57745;42.524;12.052;2023-12-07T00:54:34;3.88;;;3.13;;
58366;SDS011;57745;42.524;12.052;2023-12-07T00:56:59;3.80;;;2.55;;
58366;SDS011;57745;42.524;12.052;2023-12-07T00:59:25;4.43;;;3.00;;
58366;SDS011;57745;42.524;12.052;2023-12-07T01:01:50;3.58;;;2.55;;
58366;SDS011;57745;42.524;12.052;2023-12-07T01:04:16;4.63;;;3.00;;
58366;SDS011;57745;42.524;12.052;2023-12-07T01:06:42;5.30;;;3.00;;
58366;SDS011;57745;42.524;12.052;2023-12-07T01:09:08;3.80;;;2.72;;
58366;SDS011;57745;42.524;12.052;2023-12-07T01:11:38;3.63;;;2.63;;
58366;SDS011;57745;42.524;12.052;2023-12-07T01:14:07;4.50;;;2.80;;
58366;SDS011;57745;42.524;12.052;2023-12-07T01:16:32;3.40;;;2.47;;
58366;SDS011;57745;42.524;12.052;2023-12-07T01:18:58;4.30;;;2.63;;
58366;SDS011;57745;42.524;12.052;2023-12-07T01:21:23;3.90;;;2.40;;
58366;SDS011;57745;42.524;12.052;2023-12-07T01:23:49;4.25;;;2.53;;
58366;SDS011;57745;42.524;12.052;2023-12-07T01:26:14;5.00;;;2.60;;
58366;SDS011;57745;42.524;12.052;2023-12-07T01:28:39;3.72;;;2.45;;
58366;SDS011;57745;42.524;12.052;2023-12-07T01:31:05;4.88;;;3.00;;
58366;SDS011;57745;42.524;12.052;2023-12-07T01:33:31;4.43;;;2.75;;
58366;SDS011;57745;42.524;12.052;2023-12-07T01:35:56;4.55;;;2.70;;
58366;SDS011;57745;42.524;12.052;2023-12-07T01:38:22;4.53;;;2.92;;
58366;SDS011;57745;42.524;12.052;2023-12-07T01:40:47;5.10;;;3.13;;
58366;SDS011;57745;42.524;12.052;2023-12-07T01:43:13;4.07;;;3.00;;
58366;SDS011;57745;42.524;12.052;2023-12-07T01:45:39;5.32;;;3.28;;
58366;SDS011;57745;42.524;12.052;2023-12-07T01:48:04;5.65;;;3.50;;
58366;SDS011;57745;42.524;12.052;2023-12-07T01:50:31;5.72;;;3.28;;
58366;SDS011;57745;42.524;12.052;2023-12-07T01:52:59;5.47;;;3.45;;
58366;SDS011;57745;42.524;12.052;2023-12-07T01:55:27;5.00;;;3.17;;
58366;SDS011;57745;42.524;12.052;2023-12-07T01:57:55;5.78;;;3.70;;
58366;SDS011;57745;42.524;12.052;2023-12-07T02:00:20;5.03;;;3.78;;
58366;SDS011;57745;42.524;12.052;2023-12-07T02:02:46;5.32;;;3.30;;
58366;SDS011;57745;42.524;12.052;2023-12-07T02:05:13;5.18;;;3.25;;
58366;SDS011;57745;42.524;12.052;2023-12-07T02:07:42;5.95;;;3.40;;
58366;SDS011;57745;42.524;12.052;2023-12-07T02:10:08;7.32;;;3.22;;
58366;SDS011;57745;42.524;12.052;2023-12-07T02:12:35;4.50;;;2.80;;
58366;SDS011;57745;42.524;12.052;2023-12-07T02:15:01;5.38;;;3.22;;
58366;SDS011;57745;42.524;12.052;2023-12-07T02:17:34;4.75;;;2.80;;
58366;SDS011;57745;42.524;12.052;2023-12-07T02:20:26;3.17;;;2.42;;
58366;SDS011;57745;42.524;12.052;2023-12-07T02:23:01;5.10;;;2.28;;
58366;SDS011;57745;42.524;12.052;2023-12-07T02:25:31;5.57;;;2.78;;
58366;SDS011;57745;42.524;12.052;2023-12-07T02:28:02;4.68;;;2.47;;
58366;SDS011;57745;42.524;12.052;2023-12-07T02:30:28;3.38;;;2.33;;
58366;SDS011;57745;42.524;12.052;2023-12-07T02:32:53;2.72;;;2.08;;
58366;SDS011;57745;42.524;12.052;2023-12-07T02:35:19;3.08;;;2.30;;
58366;SDS011;57745;42.524;12.052;2023-12-07T02:40:16;2.92;;;2.20;;
58366;SDS011;57745;42.524;12.052;2023-12-07T02:42:43;3.75;;;2.25;;
58366;SDS011;57745;42.524;12.052;2023-12-07T02:45:10;3.47;;;2.53;;
58366;SDS011;57745;42.524;12.052;2023-12-07T02:47:37;3.45;;;2.40;;
58366;SDS011;57745;42.524;12.052;2023-12-07T02:50:03;3.88;;;2.17;;
58366;SDS011;57745;42.524;12.052;2023-12-07T02:52:30;3.75;;;2.72;;
58366;SDS011;57745;42.524;12.052;2023-12-07T02:54:56;3.67;;;2.40;;
58366;SDS011;57745;42.524;12.052;2023-12-07T02:57:22;3.63;;;2.10;;
58366;SDS011;57745;42.524;12.052;2023-12-07T02:59:47;4.13;;;2.03;;
58366;SDS011;57745;42.524;12.052;2023-12-07T03:02:13;2.97;;;2.25;;
58366;SDS011;57745;42.524;12.052;2023-12-07T03:04:38;3.13;;;2.03;;
58366;SDS011;57745;42.524;12.052;2023-12-07T03:07:05;2.83;;;2.08;;
58366;SDS011;57745;42.524;12.052;2023-12-07T03:09:31;3.03;;;1.88;;
58366;SDS011;57745;42.524;12.052;2023-12-07T03:11:58;3.90;;;2.10;;
58366;SDS011;57745;42.524;12.052;2023-12-07T03:14:24;3.17;;;2.22;;
58366;SDS011;57745;42.524;12.052;2023-12-07T03:16:49;3.22;;;1.90;;
58366;SDS011;57745;42.524;12.052;2023-12-07T03:19:15;3.28;;;2.25;;
58366;SDS011;57745;42.524;12.052;2023-12-07T03:21:40;3.00;;;1.83;;
58366;SDS011;57745;42.524;12.052;2023-12-07T03:24:08;1.92;;;1.27;;
58366;SDS011;57745;42.524;12.052;2023-12-07T03:26:34;3.58;;;1.50;;
58366;SDS011;57745;42.524;12.052;2023-12-07T03:29:00;3.63;;;1.33;;
58366;SDS011;57745;42.524;12.052;2023-12-07T03:31:30;2.63;;;1.55;;
58366;SDS011;57745;42.524;12.052;2023-12-07T03:33:55;2.97;;;1.40;;
58366;SDS011;57745;42.524;12.052;2023-12-07T03:36:22;2.28;;;1.35;;
58366;SDS011;57745;42.524;12.052;2023-12-07T03:38:48;2.25;;;1.30;;
58366;SDS011;57745;42.524;12.052;2023-12-07T03:41:14;2.53;;;1.27;;
58366;SDS011;57745;42.524;12.052;2023-12-07T03:43:40;1.77;;;1.23;;
58366;SDS011;57745;42.524;12.052;2023-12-07T03:46:06;1.88;;;1.35;;
58366;SDS011;57745;42.524;12.052;2023-12-07T03:48:33;1.60;;;1.20;;
58366;SDS011;57745;42.524;12.052;2023-12-07T03:50:59;1.52;;;1.08;;
58366;SDS011;57745;42.524;12.052;2023-12-07T03:53:25;3.75;;;1.40;;
58366;SDS011;57745;42.524;12.052;2023-12-07T03:55:51;1.98;;;1.10;;
58366;SDS011;57745;42.524;12.052;2023-12-07T03:58:17;3.08;;;0.98;;
58366;SDS011;57745;42.524;12.052;2023-12-07T04:00:43;2.13;;;1.27;;
58366;SDS011;57745;42.524;12.052;2023-12-07T04:03:09;2.00;;;1.33;;
58366;SDS011;57745;42.524;12.052;2023-12-07T04:05:35;1.92;;;1.15;;
58366;SDS011;57745;42.524;12.052;2023-12-07T04:08:00;1.70;;;1.10;;
58366;SDS011;57745;42.524;12.052;2023-12-07T04:10:26;4.35;;;1.90;;
58366;SDS011;57745;42.524;12.052;2023-12-07T04:12:51;4.43;;;2.53;;
58366;SDS011;57745;42.524;12.052;2023-12-07T04:15:18;6.30;;;4.05;;
58366;SDS011;57745;42.524;12.052;2023-12-07T04:17:46;5.70;;;4.00;;
58366;SDS011;57745;42.524;12.052;2023-12-07T04:20:14;7.05;;;3.92;;
58366;SDS011;57745;42.524;12.052;2023-12-07T04:22:41;8.48;;;4.60;;
58366;SDS011;57745;42.524;12.052;2023-12-07T04:25:06;6.40;;;4.32;;
58366;SDS011;57745;42.524;12.052;2023-12-07T04:27:34;5.47;;;3.85;;
58366;SDS011;57745;42.524;12.052;2023-12-07T04:29:59;4.93;;;3.00;;
58366;SDS011;57745;42.524;12.052;2023-12-07T04:32:25;3.92;;;2.78;;
58366;SDS011;57745;42.524;12.052;2023-12-07T04:34:51;5.22;;;2.42;;
58366;SDS011;57745;42.524;12.052;2023-12-07T04:37:16;5.65;;;3.33;;
58366;SDS011;57745;42.524;12.052;2023-12-07T04:39:42;17.60;;;8.00;;
58366;SDS011;57745;42.524;12.052;2023-12-07T04:42:08;18.92;;;8.80;;
58366;SDS011;57745;42.524;12.052;2023-12-07T04:44:33;17.27;;;7.45;;
58366;SDS011;57745;42.524;12.052;2023-12-07T04:46:58;15.43;;;6.60;;
58366;SDS011;57745;42.524;12.052;2023-12-07T04:49:26;8.63;;;4.35;;
58366;SDS011;57745;42.524;12.052;2023-12-07T04:51:51;7.72;;;4.32;;
58366;SDS011;57745;42.524;12.052;2023-12-07T04:54:17;9.20;;;5.68;;
58366;SDS011;57745;42.524;12.052;2023-12-07T04:56:42;7.70;;;4.90;;
58366;SDS011;57745;42.524;12.052;2023-12-07T04:59:08;7.32;;;4.55;;
58366;SDS011;57745;42.524;12.052;2023-12-07T05:01:38;8.02;;;5.10;;
58366;SDS011;57745;42.524;12.052;2023-12-07T05:04:03;8.95;;;5.22;;
58366;SDS011;57745;42.524;12.052;2023-12-07T05:06:30;7.90;;;5.25;;
58366;SDS011;57745;42.524;12.052;2023-12-07T05:08:56;8.20;;;5.45;;
58366;SDS011;57745;42.524;12.052;2023-12-07T05:11:21;7.78;;;4.53;;
58366;SDS011;57745;42.524;12.052;2023-12-07T05:13:47;8.98;;;5.63;;
58366;SDS011;57745;42.524;12.052;2023-12-07T05:16:13;10.48;;;6.07;;
58366;SDS011;57745;42.524;12.052;2023-12-07T05:18:38;8.13;;;4.72;;
58366;SDS011;57745;42.524;12.052;2023-12-07T05:21:04;8.13;;;4.90;;
58366;SDS011;57745;42.524;12.052;2023-12-07T05:23:29;6.78;;;3.95;;
58366;SDS011;57745;42.524;12.052;2023-12-07T05:25:55;6.28;;;4.22;;
58366;SDS011;57745;42.524;12.052;2023-12-07T05:28:20;7.22;;;4.22;;
58366;SDS011;57745;42.524;12.052;2023-12-07T05:30:46;5.82;;;3.75;;
58366;SDS011;57745;42.524;12.052;2023-12-07T05:33:12;5.63;;;3.47;;
58366;SDS011;57745;42.524;12.052;2023-12-07T05:35:37;8.25;;;3.70;;
58366;SDS011;57745;42.524;12.052;2023-12-07T05:38:03;5.65;;;3.35;;
58366;SDS011;57745;42.524;12.052;2023-12-07T05:40:29;6.25;;;3.80;;
58366;SDS011;57745;42.524;12.052;2023-12-07T05:42:55;5.63;;;3.50;;
58366;SDS011;57745;42.524;12.052;2023-12-07T05:45:20;18.25;;;14.60;;
58366;SDS011;57745;42.524;12.052;2023-12-07T05:47:46;21.90;;;19.55;;
58366;SDS011;57745;42.524;12.052;2023-12-07T05:50:11;19.85;;;17.80;;
58366;SDS011;57745;42.524;12.052;2023-12-07T05:52:37;16.05;;;14.35;;
58366;SDS011;57745;42.524;12.052;2023-12-07T05:55:03;9.55;;;7.40;;
58366;SDS011;57745;42.524;12.052;2023-12-07T05:57:29;9.20;;;6.82;;
58366;SDS011;57745;42.524;12.052;2023-12-07T05:59:56;7.60;;;5.65;;
58366;SDS011;57745;42.524;12.052;2023-12-07T06:02:21;8.07;;;5.22;;
58366;SDS011;57745;42.524;12.052;2023-12-07T06:04:47;6.20;;;4.72;;
58366;SDS011;57745;42.524;12.052;2023-12-07T06:07:12;6.40;;;4.53;;
58366;SDS011;57745;42.524;12.052;2023-12-07T06:09:38;5.10;;;4.03;;
58366;SDS011;57745;42.524;12.052;2023-12-07T06:12:03;5.72;;;3.90;;
58366;SDS011;57745;42.524;12.052;2023-12-07T06:14:29;7.13;;;4.55;;
58366;SDS011;57745;42.524;12.052;2023-12-07T06:16:54;9.00;;;5.22;;
58366;SDS011;57745;42.524;12.052;2023-12-07T06:19:20;6.78;;;4.55;;
58366;SDS011;57745;42.524;12.052;2023-12-07T06:21:46;7.45;;;4.43;;
58366;SDS011;57745;42.524;12.052;2023-12-07T06:24:11;5.93;;;3.90;;
58366;SDS011;57745;42.524;12.052;2023-12-07T06:26:39;7.38;;;4.10;;
58366;SDS011;57745;42.524;12.052;2023-12-07T06:29:05;7.20;;;4.13;;
58366;SDS011;57745;42.524;12.052;2023-12-07T06:31:32;6.85;;;4.82;;
58366;SDS011;57745;42.524;12.052;2023-12-07T06:33:58;8.02;;;4.75;;
58366;SDS011;57745;42.524;12.052;2023-12-07T06:36:25;10.07;;;6.82;;
58366;SDS011;57745;42.524;12.052;2023-12-07T06:38:52;13.35;;;7.45;;
58366;SDS011;57745;42.524;12.052;2023-12-07T06:41:18;9.30;;;5.72;;
58366;SDS011;57745;42.524;12.052;2023-12-07T06:43:44;9.60;;;4.95;;
58366;SDS011;57745;42.524;12.052;2023-12-07T06:46:11;6.63;;;4.28;;
58366;SDS011;57745;42.524;12.052;2023-12-07T06:48:41;6.10;;;3.97;;
58366;SDS011;57745;42.524;12.052;2023-12-07T06:51:06;6.47;;;4.00;;
58366;SDS011;57745;42.524;12.052;2023-12-07T06:53:32;6.15;;;3.80;;
58366;SDS011;57745;42.524;12.052;2023-12-07T06:55:58;5.72;;;3.63;;
58366;SDS011;57745;42.524;12.052;2023-12-07T06:58:24;6.35;;;4.18;;
58366;SDS011;57745;42.524;12.052;2023-12-07T07:00:49;9.05;;;4.65;;
58366;SDS011;57745;42.524;12.052;2023-12-07T07:03:15;7.85;;;5.35;;
58366;SDS011;57745;42.524;12.052;2023-12-07T07:05:41;7.47;;;5.00;;
58366;SDS011;57745;42.524;12.052;2023-12-07T07:08:07;9.93;;;4.70;;
58366;SDS011;57745;42.524;12.052;2023-12-07T07:10:34;6.65;;;4.15;;
58366;SDS011;57745;42.524;12.052;2023-12-07T07:13:02;5.72;;;4.05;;
58366;SDS011;57745;42.524;12.052;2023-12-07T07:15:30;5.07;;;3.53;;
58366;SDS011;57745;42.524;12.052;2023-12-07T07:17:56;6.22;;;3.33;;
58366;SDS011;57745;42.524;12.052;2023-12-07T07:20:21;5.20;;;3.38;;
58366;SDS011;57745;42.524;12.052;2023-12-07T07:22:47;5.32;;;3.50;;
58366;SDS011;57745;42.524;12.052;2023-12-07T07:25:13;5.72;;;3.20;;
58366;SDS011;57745;42.524;12.052;2023-12-07T07:27:40;4.45;;;2.75;;
58366;SDS011;57745;42.524;12.052;2023-12-07T07:30:06;5.13;;;2.45;;
58366;SDS011;57745;42.524;12.052;2023-12-07T07:32:33;4.10;;;2.58;;
58366;SDS011;57745;42.524;12.052;2023-12-07T07:34:59;4.90;;;2.92;;
58366;SDS011;57745;42.524;12.052;2023-12-07T07:37:24;5.70;;;3.03;;
58366;SDS011;57745;42.524;12.052;2023-12-07T07:39:50;5.95;;;3.17;;
58366;SDS011;57745;42.524;12.052;2023-12-07T07:42:15;6.85;;;4.35;;
58366;SDS011;57745;42.524;12.052;2023-12-07T07:44:41;6.05;;;3.45;;
58366;SDS011;57745;42.524;12.052;2023-12-07T07:47:07;5.28;;;3.08;;
58366;SDS011;57745;42.524;12.052;2023-12-07T07:49:33;4.53;;;2.83;;
58366;SDS011;57745;42.524;12.052;2023-12-07T07:51:58;3.83;;;2.65;;
58366;SDS011;57745;42.524;12.052;2023-12-07T07:54:24;4.40;;;3.17;;
58366;SDS011;57745;42.524;12.052;2023-12-07T07:56:50;4.07;;;2.55;;
58366;SDS011;57745;42.524;12.052;2023-12-07T07:59:15;5.88;;;3.10;;
58366;SDS011;57745;42.524;12.052;2023-12-07T08:01:41;4.43;;;2.75;;
58366;SDS011;57745;42.524;12.052;2023-12-07T08:04:06;4.45;;;2.90;;
58366;SDS011;57745;42.524;12.052;2023-12-07T08:06:32;4.50;;;3.17;;
58366;SDS011;57745;42.524;12.052;2023-12-07T08:08:59;6.50;;;4.18;;
58366;SDS011;57745;42.524;12.052;2023-12-07T08:11:24;5.20;;;3.47;;
58366;SDS011;57745;42.524;12.052;2023-12-07T08:13:49;6.35;;;3.78;;
58366;SDS011;57745;42.524;12.052;2023-12-07T08:16:15;6.18;;;4.20;;
58366;SDS011;57745;42.524;12.052;2023-12-07T08:18:41;5.72;;;3.60;;
58366;SDS011;57745;42.524;12.052;2023-12-07T08:21:06;6.93;;;3.95;;
58366;SDS011;57745;42.524;12.052;2023-12-07T08:23:33;9.15;;;5.35;;
58366;SDS011;57745;42.524;12.052;2023-12-07T08:26:00;9.35;;;5.10;;
58366;SDS011;57745;42.524;12.052;2023-12-07T08:28:26;7.30;;;4.60;;
58366;SDS011;57745;42.524;12.052;2023-12-07T08:30:52;5.90;;;3.65;;
58366;SDS011;57745;42.524;12.052;2023-12-07T08:33:17;4.78;;;3.05;;
58366;SDS011;57745;42.524;12.052;2023-12-07T08:35:43;5.78;;;3.78;;
58366;SDS011;57745;42.524;12.052;2023-12-07T08:38:08;8.60;;;3.47;;
58366;SDS011;57745;42.524;12.052;2023-12-07T08:40:33;6.72;;;4.07;;
58366;SDS011;57745;42.524;12.052;2023-12-07T08:42:59;9.32;;;5.50;;
58366;SDS011;57745;42.524;12.052;2023-12-07T08:45:24;11.85;;;6.38;;
58366;SDS011;57745;42.524;12.052;2023-12-07T08:47:50;7.78;;;4.70;;
58366;SDS011;57745;42.524;12.052;2023-12-07T08:50:15;7.60;;;4.47;;
58366;SDS011;57745;42.524;12.052;2023-12-07T08:52:41;7.32;;;3.83;;
58366;SDS011;57745;42.524;12.052;2023-12-07T08:55:06;7.20;;;4.43;;
58366;SDS011;57745;42.524;12.052;2023-12-07T08:57:32;8.27;;;5.15;;
58366;SDS011;57745;42.524;12.052;2023-12-07T08:59:58;7.45;;;4.40;;
58366;SDS011;57745;42.524;12.052;2023-12-07T09:02:24;6.45;;;4.55;;
58366;SDS011;57745;42.524;12.052;2023-12-07T09:04:50;6.45;;;4.18;;
58366;SDS011;57745;42.524;12.052;2023-12-07T09:07:17;5.32;;;4.50;;
58366;SDS011;57745;42.524;12.052;2023-12-07T09:09:42;7.00;;;4.03;;
58366;SDS011;57745;42.524;12.052;2023-12-07T09:12:13;5.72;;;3.90;;
58366;SDS011;57745;42.524;12.052;2023-12-07T09:14:39;5.25;;;3.78;;
58366;SDS011;57745;42.524;12.052;2023-12-07T09:17:05;5.70;;;4.20;;
58366;SDS011;57745;42.524;12.052;2023-12-07T09:19:30;7.15;;;5.13;;
58366;SDS011;57745;42.524;12.052;2023-12-07T09:21:56;8.45;;;5.90;;
58366;SDS011;57745;42.524;12.052;2023-12-07T09:24:21;9.48;;;6.68;;
58366;SDS011;57745;42.524;12.052;2023-12-07T09:26:47;9.00;;;5.70;;
58366;SDS011;57745;42.524;12.052;2023-12-07T09:29:14;6.93;;;4.68;;
58366;SDS011;57745;42.524;12.052;2023-12-07T09:31:39;6.63;;;4.50;;
58366;SDS011;57745;42.524;12.052;2023-12-07T09:34:04;7.30;;;4.57;;
58366;SDS011;57745;42.524;12.052;2023-12-07T09:36:30;7.68;;;4.75;;
58366;SDS011;57745;42.524;12.052;2023-12-07T09:38:55;6.85;;;4.60;;
58366;SDS011;57745;42.524;12.052;2023-12-07T09:41:21;6.57;;;4.65;;
58366;SDS011;57745;42.524;12.052;2023-12-07T09:43:48;6.10;;;4.90;;
58366;SDS011;57745;42.524;12.052;2023-12-07T09:46:14;6.97;;;4.55;;
58366;SDS011;57745;42.524;12.052;2023-12-07T09:48:41;6.85;;;4.70;;
58366;SDS011;57745;42.524;12.052;2023-12-07T09:51:09;7.22;;;4.70;;
58366;SDS011;57745;42.524;12.052;2023-12-07T09:53:36;5.78;;;4.15;;
58366;SDS011;57745;42.524;12.052;2023-12-07T09:56:05;6.20;;;4.53;;
58366;SDS011;57745;42.524;12.052;2023-12-07T09:58:31;7.43;;;4.57;;
58366;SDS011;57745;42.524;12.052;2023-12-07T10:00:56;5.07;;;3.78;;
58366;SDS011;57745;42.524;12.052;2023-12-07T10:03:22;7.25;;;4.13;;
58366;SDS011;57745;42.524;12.052;2023-12-07T10:05:58;7.47;;;4.88;;
58366;SDS011;57745;42.524;12.052;2023-12-07T10:08:29;8.07;;;5.10;;
58366;SDS011;57745;42.524;12.052;2023-12-07T10:13:31;8.65;;;5.03;;
58366;SDS011;57745;42.524;12.052;2023-12-07T10:16:09;8.68;;;5.25;;
58366;SDS011;57745;42.524;12.052;2023-12-07T10:18:49;9.43;;;4.57;;
58366;SDS011;57745;42.524;12.052;2023-12-07T10:21:30;5.93;;;3.90;;
58366;SDS011;57745;42.524;12.052;2023-12-07T10:27:19;8.30;;;3.85;;
58366;SDS011;57745;42.524;12.052;2023-12-07T10:29:49;7.55;;;4.15;;
58366;SDS011;57745;42.524;12.052;2023-12-07T10:32:18;7.43;;;3.88;;
58366;SDS011;57745;42.524;12.052;2023-12-07T10:35:18;5.68;;;3.92;;
58366;SDS011;57745;42.524;12.052;2023-12-07T10:41:35;4.53;;;3.45;;
58366;SDS011;57745;42.524;12.052;2023-12-07T10:44:13;6.03;;;3.83;;
58366;SDS011;57745;42.524;12.052;2023-12-07T10:46:42;7.82;;;3.97;;
58366;SDS011;57745;42.524;12.052;2023-12-07T10:49:17;6.47;;;4.15;;
58366;SDS011;57745;42.524;12.052;2023-12-07T10:52:55;7.05;;;3.97;;
58366;SDS011;57745;42.524;12.052;2023-12-07T10:56:33;7.63;;;4.03;;
58366;SDS011;57745;42.524;12.052;2023-12-07T10:59:09;7.57;;;5.18;;
58366;SDS011;57745;42.524;12.052;2023-12-07T11:01:41;8.50;;;5.25;;
58366;SDS011;57745;42.524;12.052;2023-12-07T11:04:12;9.52;;;5.70;;
58366;SDS011;57745;42.524;12.052;2023-12-07T11:06:43;8.38;;;5.32;;
58366;SDS011;57745;42.524;12.052;2023-12-07T11:09:17;9.18;;;6.53;;
58366;SDS011;57745;42.524;12.052;2023-12-07T11:12:11;9.63;;;6.10;;
58366;SDS011;57745;42.524;12.052;2023-12-07T11:14:59;10.82;;;6.05;;
58366;SDS011;57745;42.524;12.052;2023-12-07T11:17:26;8.73;;;5.40;;
58366;SDS011;57745;42.524;12.052;2023-12-07T11:19:54;10.07;;;6.07;;
58366;SDS011;57745;42.524;12.052;2023-12-07T11:25:28;8.00;;;5.10;;
58366;SDS011;57745;42.524;12.052;2023-12-07T11:28:01;10.55;;;4.90;;
58366;SDS011;57745;42.524;12.052;2023-12-07T11:30:32;7.70;;;4.75;;
58366;SDS011;57745;42.524;12.052;2023-12-07T11:33:05;7.03;;;4.60;;
58366;SDS011;57745;42.524;12.052;2023-12-07T11:35:31;6.85;;;4.97;;
58366;SDS011;57745;42.524;12.052;2023-12-07T11:38:02;8.75;;;4.50;;
58366;SDS011;57745;42.524;12.052;2023-12-07T11:40:43;6.72;;;4.45;;
58366;SDS011;57745;42.524;12.052;2023-12-07T11:44:10;7.32;;;4.88;;
58366;SDS011;57745;42.524;12.052;2023-12-07T11:46:11;7.75;;;5.05;;
58366;SDS011;57745;42.524;12.052;2023-12-07T11:48:39;6.35;;;4.30;;
58366;SDS011;57745;42.524;12.052;2023-12-07T11:51:12;8.20;;;4.65;;
58366;SDS011;57745;42.524;12.052;2023-12-07T11:53:38;6.03;;;4.35;;
58366;SDS011;57745;42.524;12.052;2023-12-07T11:58:31;8.80;;;5.03;;
58366;SDS011;57745;42.524;12.052;2023-12-07T12:00:57;8.40;;;4.95;;
58366;SDS011;57745;42.524;12.052;2023-12-07T12:03:24;7.50;;;4.88;;
58366;SDS011;57745;42.524;12.052;2023-12-07T12:05:52;6.47;;;4.38;;
58366;SDS011;57745;42.524;12.052;2023-12-07T12:08:21;7.10;;;4.45;;
58366;SDS011;57745;42.524;12.052;2023-12-07T12:10:49;6.55;;;4.57;;
58366;SDS011;57745;42.524;12.052;2023-12-07T12:13:16;7.78;;;4.65;;
58366;SDS011;57745;42.524;12.052;2023-12-07T12:15:42;7.10;;;4.53;;
58366;SDS011;57745;42.524;12.052;2023-12-07T12:18:09;7.18;;;4.47;;
58366;SDS011;57745;42.524;12.052;2023-12-07T12:20:38;7.78;;;4.70;;
58366;SDS011;57745;42.524;12.052;2023-12-07T12:23:06;9.30;;;4.90;;
58366;SDS011;57745;42.524;12.052;2023-12-07T12:25:37;9.10;;;4.63;;
58366;SDS011;57745;42.524;12.052;2023-12-07T12:28:05;6.53;;;4.00;;
58366;SDS011;57745;42.524;12.052;2023-12-07T12:30:33;7.55;;;5.15;;
58366;SDS011;57745;42.524;12.052;2023-12-07T12:33:00;8.57;;;5.05;;
58366;SDS011;57745;42.524;12.052;2023-12-07T12:35:28;9.00;;;4.55;;
58366;SDS011;57745;42.524;12.052;2023-12-07T12:37:54;6.55;;;4.50;;
58366;SDS011;57745;42.524;12.052;2023-12-07T12:40:21;8.07;;;5.13;;
58366;SDS011;57745;42.524;12.052;2023-12-07T12:42:50;7.45;;;4.78;;
58366;SDS011;57745;42.524;12.052;2023-12-07T12:45:17;6.75;;;4.63;;
58366;SDS011;57745;42.524;12.052;2023-12-07T12:47:45;7.80;;;4.82;;
58366;SDS011;57745;42.524;12.052;2023-12-07T12:53:02;9.57;;;5.13;;
58366;SDS011;57745;42.524;12.052;2023-12-07T12:55:30;8.15;;;5.10;;
58366;SDS011;57745;42.524;12.052;2023-12-07T12:58:00;9.23;;;5.90;;
58366;SDS011;57745;42.524;12.052;2023-12-07T13:00:31;9.75;;;6.05;;
58366;SDS011;57745;42.524;12.052;2023-12-07T13:03:02;8.93;;;5.28;;
58366;SDS011;57745;42.524;12.052;2023-12-07T13:05:29;8.73;;;5.47;;
58366;SDS011;57745;42.524;12.052;2023-12-07T13:07:58;8.63;;;5.70;;
58366;SDS011;57745;42.524;12.052;2023-12-07T13:10:28;9.00;;;5.75;;
58366;SDS011;57745;42.524;12.052;2023-12-07T13:12:54;9.45;;;5.78;;
58366;SDS011;57745;42.524;12.052;2023-12-07T13:15:21;7.50;;;5.10;;
58366;SDS011;57745;42.524;12.052;2023-12-07T13:17:48;7.00;;;4.57;;
58366;SDS011;57745;42.524;12.052;2023-12-07T13:20:14;8.27;;;5.20;;
58366;SDS011;57745;42.524;12.052;2023-12-07T13:22:40;7.07;;;4.65;;
58366;SDS011;57745;42.524;12.052;2023-12-07T13:25:08;6.60;;;4.95;;
58366;SDS011;57745;42.524;12.052;2023-12-07T13:27:35;6.22;;;4.53;;
58366;SDS011;57745;42.524;12.052;2023-12-07T13:30:01;7.10;;;4.50;;
58366;SDS011;57745;42.524;12.052;2023-12-07T13:32:30;8.68;;;5.40;;
58366;SDS011;57745;42.524;12.052;2023-12-07T13:34:58;6.25;;;4.57;;
58366;SDS011;57745;42.524;12.052;2023-12-07T13:37:24;6.82;;;4.70;;
58366;SDS011;57745;42.524;12.052;2023-12-07T13:39:50;8.35;;;4.70;;
58366;SDS011;57745;42.524;12.052;2023-12-07T13:42:22;7.38;;;4.57;;
58366;SDS011;57745;42.524;12.052;2023-12-07T13:44:53;6.88;;;4.60;;
58366;SDS011;57745;42.524;12.052;2023-12-07T13:47:23;6.43;;;4.20;;
58366;SDS011;57745;42.524;12.052;2023-12-07T13:50:02;6.05;;;4.22;;
58366;SDS011;57745;42.524;12.052;2023-12-07T13:52:30;7.05;;;4.20;;
58366;SDS011;57745;42.524;12.052;2023-12-07T13:54:57;7.53;;;4.85;;
58366;SDS011;57745;42.524;12.052;2023-12-07T13:57:23;7.05;;;4.45;;
58366;SDS011;57745;42.524;12.052;2023-12-07T13:59:52;5.70;;;4.10;;
58366;SDS011;57745;42.524;12.052;2023-12-07T14:02:19;5.78;;;3.80;;
58366;SDS011;57745;42.524;12.052;2023-12-07T14:04:45;6.80;;;4.18;;
58366;SDS011;57745;42.524;12.052;2023-12-07T14:07:17;9.20;;;4.35;;
58366;SDS011;57745;42.524;12.052;2023-12-07T14:09:44;5.85;;;3.90;;
58366;SDS011;57745;42.524;12.052;2023-12-07T14:12:14;6.18;;;4.25;;
58366;SDS011;57745;42.524;12.052;2023-12-07T14:14:42;6.22;;;4.18;;
58366;SDS011;57745;42.524;12.052;2023-12-07T14:17:12;6.32;;;4.43;;
58366;SDS011;57745;42.524;12.052;2023-12-07T14:19:39;7.55;;;4.85;;
58366;SDS011;57745;42.524;12.052;2023-12-07T14:22:06;9.65;;;5.70;;
58366;SDS011;57745;42.524;12.052;2023-12-07T14:24:35;13.68;;;7.13;;
58366;SDS011;57745;42.524;12.052;2023-12-07T14:27:04;20.52;;;9.00;;
58366;SDS011;57745;42.524;12.052;2023-12-07T14:29:31;17.30;;;8.75;;
58366;SDS011;57745;42.524;12.052;2023-12-07T14:31:59;21.50;;;9.43;;
58366;SDS011;57745;42.524;12.052;2023-12-07T14:34:26;16.42;;;8.27;;
58366;SDS011;57745;42.524;12.052;2023-12-07T14:36:53;17.27;;;8.82;;
58366;SDS011;57745;42.524;12.052;2023-12-07T14:39:20;16.15;;;7.78;;
58366;SDS011;57745;42.524;12.052;2023-12-07T14:41:47;11.63;;;6.25;;
58366;SDS011;57745;42.524;12.052;2023-12-07T14:44:18;11.93;;;7.25;;
58366;SDS011;57745;42.524;12.052;2023-12-07T14:46:44;13.38;;;7.43;;
58366;SDS011;57745;42.524;12.052;2023-12-07T14:49:13;12.13;;;7.07;;
58366;SDS011;57745;42.524;12.052;2023-12-07T14:51:40;11.70;;;6.68;;
58366;SDS011;57745;42.524;12.052;2023-12-07T14:54:06;14.98;;;8.18;;
58366;SDS011;57745;42.524;12.052;2023-12-07T14:56:40;16.63;;;9.85;;